sensor_id;sensor_type;location;lat;lon;timestamp;P1;durP1;ratioP1;P2;durP2;ratioP2
69046;SDS011;57261;47.504;19.084;2022-10-16T00:01:29;13.15;;;8.80;;
69046;SDS011;57261;47.504;19.084;2022-10-16T00:04:30;13.73;;;9.05;;
69046;SDS011;57261;47.504;19.084;2022-10-16T00:07:31;14.60;;;9.30;;
69046;SDS011;57261;47.504;19.084;2022-10-16T00:10:31;15.70;;;9.73;;
69046;SDS011;57261;47.504;19.084;2022-10-16T00:13:36;14.70;;;9.77;;
69046;SDS011;57261;47.504;19.084;2022-10-16T00:16:38;14.10;;;9.13;;
69046;SDS011;57261;47.504;19.084;2022-10-16T00:19:39;14.53;;;9.50;;
69046;SDS011;57261;47.504;19.084;2022-10-16T00:22:39;13.90;;;9.43;;
69046;SDS011;57261;47.504;19.084;2022-10-16T00:25:40;12.90;;;9.00;;
69046;SDS011;57261;47.504;19.084;2022-10-16T00:28:40;13.83;;;9.13;;
69046;SDS011;57261;47.504;19.084;2022-10-16T00:31:44;12.80;;;8.47;;
69046;SDS011;57261;47.504;19.084;2022-10-16T00:34:45;13.90;;;9.10;;
69046;SDS011;57261;47.504;19.084;2022-10-16T00:37:45;23.93;;;15.80;;
69046;SDS011;57261;47.504;19.084;2022-10-16T00:40:45;21.90;;;14.27;;
69046;SDS011;57261;47.504;19.084;2022-10-16T00:46:48;21.10;;;13.73;;
69046;SDS011;57261;47.504;19.084;2022-10-16T00:49:50;20.95;;;13.35;;
69046;SDS011;57261;47.504;19.084;2022-10-16T00:52:53;19.48;;;12.15;;
69046;SDS011;57261;47.504;19.084;2022-10-16T00:55:54;17.73;;;11.38;;
69046;SDS011;57261;47.504;19.084;2022-10-16T00:58:55;18.40;;;11.33;;
69046;SDS011;57261;47.504;19.084;2022-10-16T01:01:56;15.87;;;10.67;;
69046;SDS011;57261;47.504;19.084;2022-10-16T01:04:58;14.50;;;9.27;;
69046;SDS011;57261;47.504;19.084;2022-10-16T01:08:03;13.37;;;8.83;;
69046;SDS011;57261;47.504;19.084;2022-10-16T01:14:48;13.18;;;8.20;;
69046;SDS011;57261;47.504;19.084;2022-10-16T01:18:04;12.37;;;8.40;;
69046;SDS011;57261;47.504;19.084;2022-10-16T01:21:10;14.82;;;8.57;;
69046;SDS011;57261;47.504;19.084;2022-10-16T01:24:24;14.05;;;8.90;;
69046;SDS011;57261;47.504;19.084;2022-10-16T01:27:32;12.10;;;8.13;;
69046;SDS011;57261;47.504;19.084;2022-10-16T01:30:36;12.63;;;8.45;;
69046;SDS011;57261;47.504;19.084;2022-10-16T01:33:39;12.20;;;8.25;;
69046;SDS011;57261;47.504;19.084;2022-10-16T01:36:49;13.33;;;8.10;;
69046;SDS011;57261;47.504;19.084;2022-10-16T01:39:53;13.13;;;8.25;;
69046;SDS011;57261;47.504;19.084;2022-10-16T01:43:08;12.90;;;8.35;;
69046;SDS011;57261;47.504;19.084;2022-10-16T01:46:14;12.43;;;8.05;;
69046;SDS011;57261;47.504;19.084;2022-10-16T01:49:20;12.90;;;8.70;;
69046;SDS011;57261;47.504;19.084;2022-10-16T01:52:23;12.25;;;8.15;;
69046;SDS011;57261;47.504;19.084;2022-10-16T01:55:28;13.75;;;8.70;;
69046;SDS011;57261;47.504;19.084;2022-10-16T01:58:33;14.23;;;8.50;;
69046;SDS011;57261;47.504;19.084;2022-10-16T02:01:38;13.75;;;8.50;;
69046;SDS011;57261;47.504;19.084;2022-10-16T02:04:43;13.45;;;8.55;;
69046;SDS011;57261;47.504;19.084;2022-10-16T02:08:00;13.88;;;8.57;;
69046;SDS011;57261;47.504;19.084;2022-10-16T02:11:00;13.37;;;8.73;;
69046;SDS011;57261;47.504;19.084;2022-10-16T02:14:03;13.02;;;8.30;;
69046;SDS011;57261;47.504;19.084;2022-10-16T02:17:12;12.93;;;8.40;;
69046;SDS011;57261;47.504;19.084;2022-10-16T02:20:15;13.73;;;8.32;;
69046;SDS011;57261;47.504;19.084;2022-10-16T02:23:20;13.05;;;8.50;;
69046;SDS011;57261;47.504;19.084;2022-10-16T02:26:36;13.20;;;7.82;;
69046;SDS011;57261;47.504;19.084;2022-10-16T02:29:46;12.90;;;8.00;;
69046;SDS011;57261;47.504;19.084;2022-10-16T02:32:51;13.38;;;8.18;;
69046;SDS011;57261;47.504;19.084;2022-10-16T02:35:53;11.97;;;7.30;;
69046;SDS011;57261;47.504;19.084;2022-10-16T02:38:54;13.23;;;7.60;;
69046;SDS011;57261;47.504;19.084;2022-10-16T02:41:55;14.35;;;7.78;;
69046;SDS011;57261;47.504;19.084;2022-10-16T02:44:56;12.00;;;7.10;;
69046;SDS011;57261;47.504;19.084;2022-10-16T02:47:56;12.37;;;7.50;;
69046;SDS011;57261;47.504;19.084;2022-10-16T02:50:56;13.13;;;7.80;;
69046;SDS011;57261;47.504;19.084;2022-10-16T02:53:57;12.97;;;7.77;;
69046;SDS011;57261;47.504;19.084;2022-10-16T02:56:57;12.37;;;7.80;;
69046;SDS011;57261;47.504;19.084;2022-10-16T03:00:12;13.03;;;7.90;;
69046;SDS011;57261;47.504;19.084;2022-10-16T03:03:14;13.23;;;7.95;;
69046;SDS011;57261;47.504;19.084;2022-10-16T03:06:15;12.00;;;7.70;;
69046;SDS011;57261;47.504;19.084;2022-10-16T03:09:15;13.03;;;8.00;;
69046;SDS011;57261;47.504;19.084;2022-10-16T03:12:15;13.93;;;8.73;;
69046;SDS011;57261;47.504;19.084;2022-10-16T03:15:16;13.93;;;8.33;;
69046;SDS011;57261;47.504;19.084;2022-10-16T03:18:16;13.10;;;7.87;;
69046;SDS011;57261;47.504;19.084;2022-10-16T03:21:17;12.43;;;7.90;;
69046;SDS011;57261;47.504;19.084;2022-10-16T03:24:17;13.37;;;8.27;;
69046;SDS011;57261;47.504;19.084;2022-10-16T03:27:18;12.40;;;7.73;;
69046;SDS011;57261;47.504;19.084;2022-10-16T03:30:18;12.30;;;7.23;;
69046;SDS011;57261;47.504;19.084;2022-10-16T03:33:18;12.33;;;7.80;;
69046;SDS011;57261;47.504;19.084;2022-10-16T03:36:19;11.73;;;7.70;;
69046;SDS011;57261;47.504;19.084;2022-10-16T03:39:19;13.70;;;8.18;;
69046;SDS011;57261;47.504;19.084;2022-10-16T03:42:20;12.82;;;8.10;;
69046;SDS011;57261;47.504;19.084;2022-10-16T03:45:20;11.95;;;7.60;;
69046;SDS011;57261;47.504;19.084;2022-10-16T03:48:21;12.00;;;7.60;;
69046;SDS011;57261;47.504;19.084;2022-10-16T03:51:24;12.02;;;7.60;;
69046;SDS011;57261;47.504;19.084;2022-10-16T03:54:24;12.40;;;7.80;;
69046;SDS011;57261;47.504;19.084;2022-10-16T03:57:25;12.60;;;7.73;;
69046;SDS011;57261;47.504;19.084;2022-10-16T04:00:25;13.67;;;7.80;;
69046;SDS011;57261;47.504;19.084;2022-10-16T04:03:26;13.30;;;7.50;;
69046;SDS011;57261;47.504;19.084;2022-10-16T04:06:26;12.50;;;7.67;;
69046;SDS011;57261;47.504;19.084;2022-10-16T04:09:27;12.57;;;8.03;;
69046;SDS011;57261;47.504;19.084;2022-10-16T04:12:27;12.95;;;8.30;;
69046;SDS011;57261;47.504;19.084;2022-10-16T04:15:28;11.40;;;7.67;;
69046;SDS011;57261;47.504;19.084;2022-10-16T04:18:28;13.27;;;8.33;;
69046;SDS011;57261;47.504;19.084;2022-10-16T04:21:29;13.13;;;7.60;;
69046;SDS011;57261;47.504;19.084;2022-10-16T04:24:29;12.33;;;8.17;;
69046;SDS011;57261;47.504;19.084;2022-10-16T04:27:29;13.13;;;7.57;;
69046;SDS011;57261;47.504;19.084;2022-10-16T04:30:31;12.68;;;7.43;;
69046;SDS011;57261;47.504;19.084;2022-10-16T04:33:33;13.48;;;7.70;;
69046;SDS011;57261;47.504;19.084;2022-10-16T04:36:34;13.02;;;8.00;;
69046;SDS011;57261;47.504;19.084;2022-10-16T04:39:34;12.60;;;8.03;;
69046;SDS011;57261;47.504;19.084;2022-10-16T04:42:34;12.90;;;8.00;;
69046;SDS011;57261;47.504;19.084;2022-10-16T04:45:35;13.73;;;7.70;;
69046;SDS011;57261;47.504;19.084;2022-10-16T04:48:35;12.80;;;8.10;;
69046;SDS011;57261;47.504;19.084;2022-10-16T04:51:35;12.70;;;8.00;;
69046;SDS011;57261;47.504;19.084;2022-10-16T04:54:36;12.68;;;7.60;;
69046;SDS011;57261;47.504;19.084;2022-10-16T04:57:36;14.67;;;8.20;;
69046;SDS011;57261;47.504;19.084;2022-10-16T05:00:37;16.77;;;10.97;;
69046;SDS011;57261;47.504;19.084;2022-10-16T05:03:38;14.43;;;8.85;;
69046;SDS011;57261;47.504;19.084;2022-10-16T05:06:38;15.20;;;9.30;;
69046;SDS011;57261;47.504;19.084;2022-10-16T05:09:39;13.35;;;8.45;;
69046;SDS011;57261;47.504;19.084;2022-10-16T05:12:39;14.77;;;8.50;;
69046;SDS011;57261;47.504;19.084;2022-10-16T05:15:39;12.67;;;8.30;;
69046;SDS011;57261;47.504;19.084;2022-10-16T05:18:40;15.17;;;8.50;;
69046;SDS011;57261;47.504;19.084;2022-10-16T05:21:41;14.47;;;8.47;;
69046;SDS011;57261;47.504;19.084;2022-10-16T05:24:41;13.73;;;8.50;;
69046;SDS011;57261;47.504;19.084;2022-10-16T05:27:41;14.03;;;8.50;;
69046;SDS011;57261;47.504;19.084;2022-10-16T05:30:42;18.20;;;12.27;;
69046;SDS011;57261;47.504;19.084;2022-10-16T05:33:42;16.83;;;9.67;;
69046;SDS011;57261;47.504;19.084;2022-10-16T05:36:44;16.65;;;9.93;;
69046;SDS011;57261;47.504;19.084;2022-10-16T05:39:45;14.07;;;8.80;;
69046;SDS011;57261;47.504;19.084;2022-10-16T05:42:45;12.97;;;8.47;;
69046;SDS011;57261;47.504;19.084;2022-10-16T05:45:53;13.53;;;8.30;;
69046;SDS011;57261;47.504;19.084;2022-10-16T05:48:54;13.18;;;8.75;;
69046;SDS011;57261;47.504;19.084;2022-10-16T05:51:55;12.57;;;8.47;;
69046;SDS011;57261;47.504;19.084;2022-10-16T05:54:55;14.83;;;8.80;;
69046;SDS011;57261;47.504;19.084;2022-10-16T05:57:55;13.13;;;8.47;;
69046;SDS011;57261;47.504;19.084;2022-10-16T06:00:57;13.85;;;8.77;;
69046;SDS011;57261;47.504;19.084;2022-10-16T06:04:00;14.32;;;8.70;;
69046;SDS011;57261;47.504;19.084;2022-10-16T06:07:01;13.75;;;8.68;;
69046;SDS011;57261;47.504;19.084;2022-10-16T06:10:02;12.93;;;8.40;;
69046;SDS011;57261;47.504;19.084;2022-10-16T06:13:04;13.18;;;8.40;;
69046;SDS011;57261;47.504;19.084;2022-10-16T06:16:06;14.40;;;8.63;;
69046;SDS011;57261;47.504;19.084;2022-10-16T06:19:07;13.27;;;8.40;;
69046;SDS011;57261;47.504;19.084;2022-10-16T06:22:09;12.63;;;8.00;;
69046;SDS011;57261;47.504;19.084;2022-10-16T06:25:09;13.57;;;9.00;;
69046;SDS011;57261;47.504;19.084;2022-10-16T06:28:10;14.00;;;8.18;;
69046;SDS011;57261;47.504;19.084;2022-10-16T06:31:10;13.60;;;8.67;;
69046;SDS011;57261;47.504;19.084;2022-10-16T06:34:12;15.18;;;9.18;;
69046;SDS011;57261;47.504;19.084;2022-10-16T06:37:12;14.93;;;9.50;;
69046;SDS011;57261;47.504;19.084;2022-10-16T06:40:13;14.73;;;9.43;;
69046;SDS011;57261;47.504;19.084;2022-10-16T06:43:14;14.15;;;9.30;;
69046;SDS011;57261;47.504;19.084;2022-10-16T06:46:16;14.47;;;9.20;;
69046;SDS011;57261;47.504;19.084;2022-10-16T06:49:18;14.15;;;8.63;;
69046;SDS011;57261;47.504;19.084;2022-10-16T06:52:22;13.73;;;8.88;;
69046;SDS011;57261;47.504;19.084;2022-10-16T06:55:23;13.67;;;8.90;;
69046;SDS011;57261;47.504;19.084;2022-10-16T06:58:24;17.67;;;11.32;;
69046;SDS011;57261;47.504;19.084;2022-10-16T07:01:25;15.83;;;10.43;;
69046;SDS011;57261;47.504;19.084;2022-10-16T07:04:25;14.73;;;9.43;;
69046;SDS011;57261;47.504;19.084;2022-10-16T07:07:26;14.40;;;9.37;;
69046;SDS011;57261;47.504;19.084;2022-10-16T07:10:26;14.93;;;9.27;;
69046;SDS011;57261;47.504;19.084;2022-10-16T07:13:27;15.20;;;8.70;;
69046;SDS011;57261;47.504;19.084;2022-10-16T07:16:28;14.33;;;9.20;;
69046;SDS011;57261;47.504;19.084;2022-10-16T07:19:30;14.88;;;9.30;;
69046;SDS011;57261;47.504;19.084;2022-10-16T07:22:30;14.33;;;9.20;;
69046;SDS011;57261;47.504;19.084;2022-10-16T07:25:30;15.43;;;9.30;;
69046;SDS011;57261;47.504;19.084;2022-10-16T07:28:31;14.33;;;8.80;;
69046;SDS011;57261;47.504;19.084;2022-10-16T07:31:32;14.30;;;9.00;;
69046;SDS011;57261;47.504;19.084;2022-10-16T07:34:33;13.65;;;8.88;;
69046;SDS011;57261;47.504;19.084;2022-10-16T07:37:34;13.70;;;9.50;;
69046;SDS011;57261;47.504;19.084;2022-10-16T07:40:34;14.57;;;9.43;;
69046;SDS011;57261;47.504;19.084;2022-10-16T07:43:34;14.30;;;9.73;;
69046;SDS011;57261;47.504;19.084;2022-10-16T07:46:35;14.40;;;9.40;;
69046;SDS011;57261;47.504;19.084;2022-10-16T07:49:36;14.43;;;8.67;;
69046;SDS011;57261;47.504;19.084;2022-10-16T07:52:36;12.97;;;8.93;;
69046;SDS011;57261;47.504;19.084;2022-10-16T07:55:36;13.13;;;8.90;;
69046;SDS011;57261;47.504;19.084;2022-10-16T07:58:37;13.50;;;8.73;;
69046;SDS011;57261;47.504;19.084;2022-10-16T08:01:37;13.93;;;9.03;;
69046;SDS011;57261;47.504;19.084;2022-10-16T08:04:38;14.40;;;8.93;;
69046;SDS011;57261;47.504;19.084;2022-10-16T08:07:38;14.20;;;9.10;;
69046;SDS011;57261;47.504;19.084;2022-10-16T08:10:39;13.60;;;9.40;;
69046;SDS011;57261;47.504;19.084;2022-10-16T08:13:41;14.57;;;9.60;;
69046;SDS011;57261;47.504;19.084;2022-10-16T08:16:41;13.43;;;9.43;;
69046;SDS011;57261;47.504;19.084;2022-10-16T08:19:45;12.53;;;9.10;;
69046;SDS011;57261;47.504;19.084;2022-10-16T08:22:47;14.48;;;9.25;;
69046;SDS011;57261;47.504;19.084;2022-10-16T08:25:47;13.98;;;9.32;;
69046;SDS011;57261;47.504;19.084;2022-10-16T08:28:51;13.97;;;9.77;;
69046;SDS011;57261;47.504;19.084;2022-10-16T08:31:59;14.60;;;10.18;;
69046;SDS011;57261;47.504;19.084;2022-10-16T08:35:00;14.88;;;9.63;;
69046;SDS011;57261;47.504;19.084;2022-10-16T08:38:02;14.00;;;10.07;;
69046;SDS011;57261;47.504;19.084;2022-10-16T08:47:48;14.73;;;10.13;;
69046;SDS011;57261;47.504;19.084;2022-10-16T08:50:51;15.73;;;10.60;;
69046;SDS011;57261;47.504;19.084;2022-10-16T08:53:57;15.55;;;10.15;;
69046;SDS011;57261;47.504;19.084;2022-10-16T08:57:19;15.00;;;10.27;;
69046;SDS011;57261;47.504;19.084;2022-10-16T09:00:22;16.25;;;10.23;;
69046;SDS011;57261;47.504;19.084;2022-10-16T09:09:59;14.43;;;9.73;;
69046;SDS011;57261;47.504;19.084;2022-10-16T09:16:35;17.10;;;11.15;;
69046;SDS011;57261;47.504;19.084;2022-10-16T09:19:41;16.70;;;11.60;;
69046;SDS011;57261;47.504;19.084;2022-10-16T09:22:51;17.02;;;10.45;;
69046;SDS011;57261;47.504;19.084;2022-10-16T09:26:13;16.15;;;10.88;;
69046;SDS011;57261;47.504;19.084;2022-10-16T09:29:17;16.30;;;10.48;;
69046;SDS011;57261;47.504;19.084;2022-10-16T09:32:22;14.77;;;10.02;;
69046;SDS011;57261;47.504;19.084;2022-10-16T09:35:27;15.50;;;10.43;;
69046;SDS011;57261;47.504;19.084;2022-10-16T09:38:34;14.10;;;10.00;;
69046;SDS011;57261;47.504;19.084;2022-10-16T09:41:37;16.20;;;11.00;;
69046;SDS011;57261;47.504;19.084;2022-10-16T09:44:41;14.67;;;10.40;;
69046;SDS011;57261;47.504;19.084;2022-10-16T09:47:47;16.58;;;10.48;;
69046;SDS011;57261;47.504;19.084;2022-10-16T09:51:01;14.87;;;10.53;;
69046;SDS011;57261;47.504;19.084;2022-10-16T09:57:11;15.80;;;10.95;;
69046;SDS011;57261;47.504;19.084;2022-10-16T10:00:15;14.90;;;10.25;;
69046;SDS011;57261;47.504;19.084;2022-10-16T10:06:49;14.98;;;10.60;;
69046;SDS011;57261;47.504;19.084;2022-10-16T10:09:53;13.98;;;10.55;;
69046;SDS011;57261;47.504;19.084;2022-10-16T10:12:56;15.32;;;10.05;;
69046;SDS011;57261;47.504;19.084;2022-10-16T10:15:57;14.27;;;9.98;;
69046;SDS011;57261;47.504;19.084;2022-10-16T10:18:58;15.43;;;10.63;;
69046;SDS011;57261;47.504;19.084;2022-10-16T10:21:59;14.33;;;10.50;;
69046;SDS011;57261;47.504;19.084;2022-10-16T10:25:00;14.93;;;10.63;;
69046;SDS011;57261;47.504;19.084;2022-10-16T10:28:10;14.95;;;10.43;;
69046;SDS011;57261;47.504;19.084;2022-10-16T10:34:52;14.23;;;10.65;;
69046;SDS011;57261;47.504;19.084;2022-10-16T10:44:38;15.80;;;10.67;;
69046;SDS011;57261;47.504;19.084;2022-10-16T10:47:53;14.40;;;9.68;;
69046;SDS011;57261;47.504;19.084;2022-10-16T10:51:08;13.88;;;10.25;;
69046;SDS011;57261;47.504;19.084;2022-10-16T10:57:29;14.70;;;10.30;;
69046;SDS011;57261;47.504;19.084;2022-10-16T11:10:30;18.55;;;12.88;;
69046;SDS011;57261;47.504;19.084;2022-10-16T11:16:54;15.87;;;12.00;;
69046;SDS011;57261;47.504;19.084;2022-10-16T11:20:21;16.95;;;12.13;;
69046;SDS011;57261;47.504;19.084;2022-10-16T11:27:07;15.10;;;10.88;;
69046;SDS011;57261;47.504;19.084;2022-10-16T11:33:32;15.82;;;11.23;;
69046;SDS011;57261;47.504;19.084;2022-10-16T11:36:42;16.30;;;11.35;;
69046;SDS011;57261;47.504;19.084;2022-10-16T11:39:50;15.10;;;10.27;;
69046;SDS011;57261;47.504;19.084;2022-10-16T11:42:57;16.17;;;11.32;;
69046;SDS011;57261;47.504;19.084;2022-10-16T11:46:13;16.60;;;11.02;;
69046;SDS011;57261;47.504;19.084;2022-10-16T11:49:24;14.32;;;10.13;;
69046;SDS011;57261;47.504;19.084;2022-10-16T11:52:35;15.33;;;10.97;;
69046;SDS011;57261;47.504;19.084;2022-10-16T11:55:42;15.60;;;10.73;;
69046;SDS011;57261;47.504;19.084;2022-10-16T11:58:48;14.13;;;10.60;;
69046;SDS011;57261;47.504;19.084;2022-10-16T12:01:56;13.95;;;9.88;;
69046;SDS011;57261;47.504;19.084;2022-10-16T12:08:24;13.23;;;10.00;;
69046;SDS011;57261;47.504;19.084;2022-10-16T12:14:33;13.00;;;9.47;;
69046;SDS011;57261;47.504;19.084;2022-10-16T12:17:44;14.35;;;9.70;;
69046;SDS011;57261;47.504;19.084;2022-10-16T12:20:44;13.03;;;9.83;;
69046;SDS011;57261;47.504;19.084;2022-10-16T12:24:00;13.80;;;9.90;;
69046;SDS011;57261;47.504;19.084;2022-10-16T12:27:04;13.80;;;9.93;;
69046;SDS011;57261;47.504;19.084;2022-10-16T12:30:07;12.83;;;9.73;;
69046;SDS011;57261;47.504;19.084;2022-10-16T12:33:19;13.68;;;9.25;;
69046;SDS011;57261;47.504;19.084;2022-10-16T12:36:27;13.67;;;9.57;;
69046;SDS011;57261;47.504;19.084;2022-10-16T12:39:30;13.75;;;9.35;;
69046;SDS011;57261;47.504;19.084;2022-10-16T12:42:33;13.47;;;9.63;;
69046;SDS011;57261;47.504;19.084;2022-10-16T12:45:34;13.50;;;9.52;;
69046;SDS011;57261;47.504;19.084;2022-10-16T12:48:35;14.07;;;9.63;;
69046;SDS011;57261;47.504;19.084;2022-10-16T12:51:37;13.85;;;9.30;;
69046;SDS011;57261;47.504;19.084;2022-10-16T12:54:38;12.95;;;9.52;;
69046;SDS011;57261;47.504;19.084;2022-10-16T12:57:44;12.75;;;9.25;;
69046;SDS011;57261;47.504;19.084;2022-10-16T13:01:07;12.70;;;9.77;;
69046;SDS011;57261;47.504;19.084;2022-10-16T13:07:48;12.57;;;9.10;;
69046;SDS011;57261;47.504;19.084;2022-10-16T13:17:47;17.92;;;13.57;;
69046;SDS011;57261;47.504;19.084;2022-10-16T13:27:41;16.00;;;11.80;;
69046;SDS011;57261;47.504;19.084;2022-10-16T13:30:59;18.85;;;13.85;;
69046;SDS011;57261;47.504;19.084;2022-10-16T13:34:01;13.77;;;10.48;;
69046;SDS011;57261;47.504;19.084;2022-10-16T13:37:15;16.60;;;12.30;;
69046;SDS011;57261;47.504;19.084;2022-10-16T13:40:21;17.70;;;13.35;;
69046;SDS011;57261;47.504;19.084;2022-10-16T13:43:25;17.67;;;13.20;;
69046;SDS011;57261;47.504;19.084;2022-10-16T13:46:36;15.55;;;11.50;;
69046;SDS011;57261;47.504;19.084;2022-10-16T13:49:36;14.87;;;11.63;;
69046;SDS011;57261;47.504;19.084;2022-10-16T13:52:37;14.87;;;11.23;;
69046;SDS011;57261;47.504;19.084;2022-10-16T13:55:38;13.93;;;10.07;;
69046;SDS011;57261;47.504;19.084;2022-10-16T13:58:38;15.63;;;11.47;;
69046;SDS011;57261;47.504;19.084;2022-10-16T14:01:42;15.17;;;11.40;;
69046;SDS011;57261;47.504;19.084;2022-10-16T14:04:44;14.43;;;10.45;;
69046;SDS011;57261;47.504;19.084;2022-10-16T14:07:47;14.32;;;11.15;;
69046;SDS011;57261;47.504;19.084;2022-10-16T14:10:51;17.52;;;13.07;;
69046;SDS011;57261;47.504;19.084;2022-10-16T14:13:54;13.68;;;10.15;;
69046;SDS011;57261;47.504;19.084;2022-10-16T14:16:55;13.83;;;9.87;;
69046;SDS011;57261;47.504;19.084;2022-10-16T14:19:57;13.70;;;9.90;;
69046;SDS011;57261;47.504;19.084;2022-10-16T14:23:18;16.13;;;10.75;;
69046;SDS011;57261;47.504;19.084;2022-10-16T14:26:20;14.13;;;9.93;;
69046;SDS011;57261;47.504;19.084;2022-10-16T14:29:24;17.08;;;12.73;;
69046;SDS011;57261;47.504;19.084;2022-10-16T14:32:26;14.93;;;9.93;;
69046;SDS011;57261;47.504;19.084;2022-10-16T14:35:37;13.60;;;9.77;;
69046;SDS011;57261;47.504;19.084;2022-10-16T14:38:41;13.88;;;10.40;;
69046;SDS011;57261;47.504;19.084;2022-10-16T14:41:44;14.95;;;10.80;;
69046;SDS011;57261;47.504;19.084;2022-10-16T14:44:47;14.65;;;10.38;;
69046;SDS011;57261;47.504;19.084;2022-10-16T14:47:50;15.40;;;10.55;;
69046;SDS011;57261;47.504;19.084;2022-10-16T14:50:53;14.90;;;10.57;;
69046;SDS011;57261;47.504;19.084;2022-10-16T14:53:53;14.50;;;10.20;;
69046;SDS011;57261;47.504;19.084;2022-10-16T14:56:55;14.17;;;10.37;;
69046;SDS011;57261;47.504;19.084;2022-10-16T14:59:57;13.43;;;9.50;;
69046;SDS011;57261;47.504;19.084;2022-10-16T15:02:58;13.93;;;10.07;;
69046;SDS011;57261;47.504;19.084;2022-10-16T15:05:58;13.48;;;9.75;;
69046;SDS011;57261;47.504;19.084;2022-10-16T15:08:58;14.17;;;9.93;;
69046;SDS011;57261;47.504;19.084;2022-10-16T15:11:59;14.30;;;9.63;;
69046;SDS011;57261;47.504;19.084;2022-10-16T15:14:59;13.80;;;9.27;;
69046;SDS011;57261;47.504;19.084;2022-10-16T15:18:00;13.80;;;9.33;;
69046;SDS011;57261;47.504;19.084;2022-10-16T15:21:01;16.00;;;10.15;;
69046;SDS011;57261;47.504;19.084;2022-10-16T15:24:01;15.20;;;10.47;;
69046;SDS011;57261;47.504;19.084;2022-10-16T15:27:02;14.20;;;9.60;;
69046;SDS011;57261;47.504;19.084;2022-10-16T15:30:03;14.10;;;9.53;;
69046;SDS011;57261;47.504;19.084;2022-10-16T15:33:04;16.10;;;11.43;;
69046;SDS011;57261;47.504;19.084;2022-10-16T15:36:05;23.15;;;17.88;;
69046;SDS011;57261;47.504;19.084;2022-10-16T15:39:16;17.73;;;12.37;;
69046;SDS011;57261;47.504;19.084;2022-10-16T15:42:18;15.40;;;10.32;;
69046;SDS011;57261;47.504;19.084;2022-10-16T15:45:18;16.83;;;12.20;;
69046;SDS011;57261;47.504;19.084;2022-10-16T15:48:20;15.35;;;10.35;;
69046;SDS011;57261;47.504;19.084;2022-10-16T15:51:20;17.47;;;10.80;;
69046;SDS011;57261;47.504;19.084;2022-10-16T15:54:20;15.60;;;10.37;;
69046;SDS011;57261;47.504;19.084;2022-10-16T15:57:22;13.45;;;9.35;;
69046;SDS011;57261;47.504;19.084;2022-10-16T16:00:23;14.77;;;9.40;;
69046;SDS011;57261;47.504;19.084;2022-10-16T16:03:25;14.48;;;9.55;;
69046;SDS011;57261;47.504;19.084;2022-10-16T16:06:26;15.47;;;9.73;;
69046;SDS011;57261;47.504;19.084;2022-10-16T16:09:30;15.10;;;9.50;;
69046;SDS011;57261;47.504;19.084;2022-10-16T16:12:30;14.17;;;9.70;;
69046;SDS011;57261;47.504;19.084;2022-10-16T16:15:31;14.95;;;10.07;;
69046;SDS011;57261;47.504;19.084;2022-10-16T16:18:32;16.27;;;10.45;;
69046;SDS011;57261;47.504;19.084;2022-10-16T16:21:33;15.60;;;10.52;;
69046;SDS011;57261;47.504;19.084;2022-10-16T16:24:33;16.03;;;10.70;;
69046;SDS011;57261;47.504;19.084;2022-10-16T16:27:34;16.23;;;9.90;;
69046;SDS011;57261;47.504;19.084;2022-10-16T16:30:34;15.20;;;10.57;;
69046;SDS011;57261;47.504;19.084;2022-10-16T16:33:38;15.00;;;10.10;;
69046;SDS011;57261;47.504;19.084;2022-10-16T16:36:38;16.23;;;10.50;;
69046;SDS011;57261;47.504;19.084;2022-10-16T16:39:39;17.40;;;11.20;;
69046;SDS011;57261;47.504;19.084;2022-10-16T16:42:40;16.07;;;10.50;;
69046;SDS011;57261;47.504;19.084;2022-10-16T16:45:40;17.50;;;11.73;;
69046;SDS011;57261;47.504;19.084;2022-10-16T16:48:41;22.43;;;16.57;;
69046;SDS011;57261;47.504;19.084;2022-10-16T16:51:41;18.05;;;12.23;;
69046;SDS011;57261;47.504;19.084;2022-10-16T16:54:42;18.47;;;13.00;;
69046;SDS011;57261;47.504;19.084;2022-10-16T16:57:44;22.88;;;15.68;;
69046;SDS011;57261;47.504;19.084;2022-10-16T17:00:48;17.58;;;11.68;;
69046;SDS011;57261;47.504;19.084;2022-10-16T17:03:49;20.10;;;14.50;;
69046;SDS011;57261;47.504;19.084;2022-10-16T17:06:54;24.27;;;18.05;;
69046;SDS011;57261;47.504;19.084;2022-10-16T17:09:55;22.25;;;15.30;;
69046;SDS011;57261;47.504;19.084;2022-10-16T17:12:55;27.93;;;20.23;;
69046;SDS011;57261;47.504;19.084;2022-10-16T17:15:56;20.47;;;14.57;;
69046;SDS011;57261;47.504;19.084;2022-10-16T17:18:58;21.77;;;15.47;;
69046;SDS011;57261;47.504;19.084;2022-10-16T17:22:00;24.33;;;17.48;;
69046;SDS011;57261;47.504;19.084;2022-10-16T17:25:00;20.27;;;15.07;;
69046;SDS011;57261;47.504;19.084;2022-10-16T17:28:03;23.17;;;15.43;;
69046;SDS011;57261;47.504;19.084;2022-10-16T17:31:14;25.27;;;18.25;;
69046;SDS011;57261;47.504;19.084;2022-10-16T17:34:18;23.75;;;16.95;;
69046;SDS011;57261;47.504;19.084;2022-10-16T17:37:18;20.98;;;15.13;;
69046;SDS011;57261;47.504;19.084;2022-10-16T17:40:19;22.60;;;16.47;;
69046;SDS011;57261;47.504;19.084;2022-10-16T17:43:20;23.70;;;17.83;;
69046;SDS011;57261;47.504;19.084;2022-10-16T17:46:21;20.17;;;14.77;;
69046;SDS011;57261;47.504;19.084;2022-10-16T17:49:23;17.80;;;13.32;;
69046;SDS011;57261;47.504;19.084;2022-10-16T17:52:23;18.57;;;13.60;;
69046;SDS011;57261;47.504;19.084;2022-10-16T17:55:24;23.77;;;16.47;;
69046;SDS011;57261;47.504;19.084;2022-10-16T17:58:24;20.10;;;14.13;;
69046;SDS011;57261;47.504;19.084;2022-10-16T18:01:29;20.57;;;14.70;;
69046;SDS011;57261;47.504;19.084;2022-10-16T18:04:31;32.42;;;22.48;;
69046;SDS011;57261;47.504;19.084;2022-10-16T18:07:31;22.55;;;16.55;;
69046;SDS011;57261;47.504;19.084;2022-10-16T18:10:32;24.57;;;17.23;;
69046;SDS011;57261;47.504;19.084;2022-10-16T18:13:32;21.97;;;15.47;;
69046;SDS011;57261;47.504;19.084;2022-10-16T18:16:33;23.47;;;16.60;;
69046;SDS011;57261;47.504;19.084;2022-10-16T18:19:38;26.48;;;18.70;;
69046;SDS011;57261;47.504;19.084;2022-10-16T18:22:38;22.73;;;16.27;;
69046;SDS011;57261;47.504;19.084;2022-10-16T18:25:39;23.45;;;16.25;;
69046;SDS011;57261;47.504;19.084;2022-10-16T18:28:39;19.63;;;14.17;;
69046;SDS011;57261;47.504;19.084;2022-10-16T18:31:40;21.13;;;14.13;;
69046;SDS011;57261;47.504;19.084;2022-10-16T18:34:40;17.37;;;12.57;;
69046;SDS011;57261;47.504;19.084;2022-10-16T18:37:41;20.47;;;13.50;;
69046;SDS011;57261;47.504;19.084;2022-10-16T18:40:41;17.80;;;11.88;;
69046;SDS011;57261;47.504;19.084;2022-10-16T18:43:42;19.73;;;12.85;;
69046;SDS011;57261;47.504;19.084;2022-10-16T18:46:42;18.23;;;12.23;;
69046;SDS011;57261;47.504;19.084;2022-10-16T18:49:43;17.63;;;12.50;;
69046;SDS011;57261;47.504;19.084;2022-10-16T18:52:46;18.27;;;11.70;;
69046;SDS011;57261;47.504;19.084;2022-10-16T18:55:51;17.45;;;11.73;;
69046;SDS011;57261;47.504;19.084;2022-10-16T18:58:52;18.33;;;12.10;;
69046;SDS011;57261;47.504;19.084;2022-10-16T19:01:52;18.47;;;11.57;;
69046;SDS011;57261;47.504;19.084;2022-10-16T19:04:53;18.63;;;12.73;;
69046;SDS011;57261;47.504;19.084;2022-10-16T19:07:53;18.47;;;11.73;;
69046;SDS011;57261;47.504;19.084;2022-10-16T19:10:54;18.93;;;13.00;;